Time;durP1;ratioP1;P1;durP2;ratioP2;P2;SDS_P1;SDS_P2;PMS_P1;PMS_P2;Temp;Humidity;BMP_temperature;BMP_pressure;BME280_temperature;BME280_humidity;BME280_pressure;Samples;Min_cycle;Max_cycle;Signal;HPM_P1;HPM_P2
2021/07/21 00:01:37;;;;;;;11.70;8.60;;;16.00;1.00;;;;;;5031879;28;20184;-52
2021/07/21 00:04:04;;;;;;;9.13;8.33;;;16.00;1.00;;;;;;5032982;28;20188;-50
2021/07/21 00:06:29;;;;;;;9.70;8.43;;;16.00;1.00;;;;;;5031385;28;20438;-50
2021/07/21 00:08:55;;;;;;;9.60;8.60;;;15.90;1.00;;;;;;5031838;28;22537;-50
2021/07/21 00:14:15;;;;;;;9.10;8.30;;;16.00;1.00;;;;;;5023623;28;20181;-50
2021/07/21 00:16:44;;;;;;;14.73;8.30;;;16.00;1.00;;;;;;5029092;28;20221;-54
2021/07/21 00:20:05;;;;;;;9.40;8.50;;;16.00;1.00;;;;;;5031350;28;20431;-50
2021/07/21 00:21:55;;;;;;;10.23;9.10;;;16.00;1.00;;;;;;5025664;28;20468;-53
2021/07/21 00:24:20;;;;;;;9.17;8.30;;;15.90;1.00;;;;;;5030758;28;20827;-54
2021/07/21 00:26:46;;;;;;;9.57;8.53;;;15.90;1.00;;;;;;5032111;28;20283;-52
2021/07/21 00:29:11;;;;;;;9.30;8.40;;;15.90;1.00;;;;;;5031360;28;20238;-53
2021/07/21 00:31:37;;;;;;;9.70;8.90;;;15.80;1.00;;;;;;5024979;28;20539;-55
2021/07/21 00:34:03;;;;;;;10.07;9.07;;;15.80;1.00;;;;;;5031024;28;20195;-53
2021/07/21 00:36:28;;;;;;;8.87;8.07;;;15.80;1.00;;;;;;5031067;28;20191;-52
2021/07/21 00:38:54;;;;;;;10.10;9.10;;;15.80;1.00;;;;;;5030592;28;20215;-52
2021/07/21 00:41:19;;;;;;;9.83;8.47;;;15.80;1.00;;;;;;5031562;28;20169;-53
2021/07/21 00:43:45;;;;;;;9.83;8.10;;;15.80;1.00;;;;;;5024790;28;20210;-52
2021/07/21 00:46:11;;;;;;;8.80;7.90;;;15.80;1.00;;;;;;5024377;28;20190;-52
2021/07/21 00:48:37;;;;;;;9.90;8.60;;;15.80;1.00;;;;;;5030761;28;20449;-50
2021/07/21 00:51:02;;;;;;;10.83;8.20;;;15.80;1.00;;;;;;5032277;28;20241;-52
2021/07/21 00:53:28;;;;;;;9.17;8.20;;;15.80;1.00;;;;;;5012512;28;20201;-51
2021/07/21 00:55:54;;;;;;;9.63;8.60;;;15.80;1.00;;;;;;5028670;28;20498;-56
2021/07/21 00:58:20;;;;;;;9.30;8.50;;;15.80;1.00;;;;;;5026887;28;20187;-53
2021/07/21 01:00:45;;;;;;;8.80;8.00;;;15.80;1.00;;;;;;5031037;28;20187;-55
2021/07/21 01:03:11;;;;;;;10.70;8.93;;;15.70;1.00;;;;;;5027826;28;20446;-54
2021/07/21 01:05:43;;;;;;;13.07;8.50;;;15.70;1.00;;;;;;5025283;28;20189;-52
2021/07/21 01:08:12;;;;;;;9.37;8.30;;;15.60;1.00;;;;;;5028900;28;20437;-54
2021/07/21 01:10:44;;;;;;;8.50;7.70;;;15.60;1.00;;;;;;5029991;28;20474;-52
2021/07/21 01:13:23;;;;;;;8.63;7.82;;;15.60;2.60;;;;;;5036045;28;20440;-50
2021/07/21 01:16:05;;;;;;;9.00;8.20;;;15.60;1.00;;;;;;5029842;28;20240;-52
2021/07/21 01:18:36;;;;;;;10.20;8.07;;;15.60;1.50;;;;;;5021119;28;20524;-51
2021/07/21 01:21:26;;;;;;;9.20;8.40;;;15.60;1.00;;;;;;5025895;28;20457;-53
2021/07/21 01:24:26;;;;;;;9.40;8.50;;;15.50;4.60;;;;;;5029460;28;20486;-53
2021/07/21 01:27:16;;;;;;;9.70;8.73;;;15.40;7.00;;;;;;4995190;28;20537;-51
2021/07/21 01:29:45;;;;;;;10.30;8.00;;;15.40;10.90;;;;;;5026304;28;20479;-49
2021/07/21 01:32:13;;;;;;;10.30;9.30;;;15.40;9.50;;;;;;5026748;28;20952;-53
2021/07/21 01:34:40;;;;;;;11.17;8.00;;;15.20;13.50;;;;;;5028035;28;20524;-50
2021/07/21 01:37:07;;;;;;;8.93;7.97;;;15.20;17.20;;;;;;5030295;28;20499;-51
2021/07/21 01:39:38;;;;;;;10.03;8.67;;;15.10;20.30;;;;;;5029557;28;20463;-56
2021/07/21 01:42:08;;;;;;;9.30;8.50;;;15.10;20.00;;;;;;5030229;28;20501;-51
2021/07/21 01:44:38;;;;;;;9.65;8.65;;;15.10;23.80;;;;;;5026949;28;20425;-54
2021/07/21 01:47:04;;;;;;;10.60;9.50;;;15.20;23.50;;;;;;5024024;28;20201;-53
2021/07/21 01:49:39;;;;;;;9.77;8.00;;;15.10;25.40;;;;;;5029696;28;21102;-52
2021/07/21 01:52:14;;;;;;;9.60;8.70;;;15.20;25.10;;;;;;5028927;28;20174;-51
2021/07/21 01:54:42;;;;;;;9.40;8.60;;;15.20;19.30;;;;;;5028922;28;20902;-51
2021/07/21 01:57:08;;;;;;;9.27;8.33;;;15.20;19.00;;;;;;5028774;28;20449;-49
2021/07/21 01:59:35;;;;;;;9.10;8.30;;;15.20;20.00;;;;;;5028917;28;20842;-52
2021/07/21 02:02:02;;;;;;;9.13;8.17;;;15.20;19.70;;;;;;5029601;28;20457;-52
2021/07/21 02:04:29;;;;;;;8.00;7.30;;;15.30;18.90;;;;;;5028026;28;20445;-51
2021/07/21 02:06:56;;;;;;;9.57;8.57;;;15.30;17.00;;;;;;5029447;28;20453;-51
2021/07/21 02:09:23;;;;;;;9.30;8.30;;;15.40;16.70;;;;;;5028743;28;20906;-53
2021/07/21 02:11:49;;;;;;;10.57;8.57;;;15.40;10.30;;;;;;5032540;28;20437;-52
2021/07/21 02:14:16;;;;;;;8.57;7.87;;;15.40;9.60;;;;;;5031581;28;20842;-52
2021/07/21 02:16:42;;;;;;;9.27;8.57;;;15.50;7.30;;;;;;5029385;28;20222;-55
2021/07/21 02:19:08;;;;;;;8.83;8.03;;;15.50;9.80;;;;;;5027186;28;20182;-53
2021/07/21 02:21:40;;;;;;;9.23;8.30;;;15.50;2.00;;;;;;5028592;28;21304;-50
2021/07/21 02:24:08;;;;;;;9.40;8.50;;;15.60;2.40;;;;;;5027061;28;20773;-52
2021/07/21 02:26:37;;;;;;;8.60;7.80;;;15.50;1.00;;;;;;5030464;28;20938;-56
2021/07/21 02:29:04;;;;;;;9.23;8.00;;;15.40;2.30;;;;;;5027721;28;20535;-54
2021/07/21 02:31:41;;;;;;;13.87;9.63;;;15.40;6.00;;;;;;5028243;28;20437;-54
2021/07/21 02:34:07;;;;;;;8.40;7.60;;;15.40;8.20;;;;;;5027949;28;20429;-48
2021/07/21 02:36:34;;;;;;;10.57;7.80;;;15.40;9.00;;;;;;5030134;28;20429;-49
2021/07/21 02:39:02;;;;;;;9.10;8.20;;;15.40;6.40;;;;;;5027381;28;20469;-52
2021/07/21 02:41:28;;;;;;;8.80;8.10;;;15.40;6.20;;;;;;5022012;28;20655;-55
2021/07/21 02:43:53;;;;;;;8.70;7.80;;;15.50;3.90;;;;;;5023739;28;20533;-53
2021/07/21 02:46:19;;;;;;;8.67;7.90;;;15.40;4.40;;;;;;5022620;28;20186;-51
2021/07/21 02:48:47;;;;;;;8.73;7.83;;;15.40;3.20;;;;;;5027973;28;20190;-50
2021/07/21 02:51:24;;;;;;;8.83;8.03;;;15.40;4.40;;;;;;5027261;28;20186;-49
2021/07/21 02:53:59;;;;;;;8.80;7.60;;;15.50;1.00;;;;;;5025777;28;20542;-50
2021/07/21 02:56:26;;;;;;;9.03;8.13;;;15.50;1.00;;;;;;5016022;28;20425;-50
2021/07/21 02:59:03;;;;;;;9.47;8.57;;;15.50;1.00;;;;;;5028739;28;20453;-51
2021/07/21 03:01:29;;;;;;;10.10;8.37;;;15.50;1.00;;;;;;5016558;28;21304;-52
2021/07/21 03:03:55;;;;;;;8.70;8.00;;;15.50;1.00;;;;;;5029569;28;20471;-52
2021/07/21 03:06:24;;;;;;;8.23;7.43;;;15.60;1.00;;;;;;5025481;28;20434;-51
2021/07/21 03:08:51;;;;;;;9.02;7.88;;;15.50;1.00;;;;;;5028581;28;20504;-50
2021/07/21 03:11:19;;;;;;;8.60;7.90;;;15.50;1.00;;;;;;5025471;28;20183;-52
2021/07/21 03:13:50;;;;;;;8.97;8.17;;;15.60;1.00;;;;;;5032811;28;20952;-54
2021/07/21 03:16:22;;;;;;;9.50;7.90;;;15.50;1.00;;;;;;5028183;28;20516;-52
2021/07/21 03:18:50;;;;;;;8.57;7.63;;;15.60;1.00;;;;;;5027752;28;20479;-54
2021/07/21 03:21:18;;;;;;;10.87;8.17;;;15.60;1.00;;;;;;5026654;28;20475;-48
2021/07/21 03:23:46;;;;;;;8.70;7.90;;;15.60;1.00;;;;;;5028065;28;20834;-53
2021/07/21 03:26:12;;;;;;;9.17;8.10;;;15.60;1.10;;;;;;5028863;28;20191;-49
2021/07/21 03:28:38;;;;;;;10.07;8.63;;;15.70;1.00;;;;;;5018246;28;20446;-52
2021/07/21 03:31:05;;;;;;;10.50;8.40;;;15.70;1.00;;;;;;5027988;28;20519;-53
2021/07/21 03:33:31;;;;;;;8.80;7.93;;;15.60;1.00;;;;;;5027167;28;20431;-48
2021/07/21 03:36:01;;;;;;;8.60;7.80;;;15.70;1.00;;;;;;5022585;28;20435;-55
2021/07/21 03:38:27;;;;;;;10.03;8.10;;;15.70;1.00;;;;;;5026591;28;20440;-53
2021/07/21 03:40:55;;;;;;;8.27;7.47;;;15.70;1.00;;;;;;5026649;28;20462;-53
2021/07/21 03:43:22;;;;;;;9.07;8.27;;;15.80;1.00;;;;;;5027037;28;20582;-51
2021/07/21 03:45:49;;;;;;;9.33;8.53;;;15.80;1.00;;;;;;5010259;28;20960;-52
2021/07/21 03:48:16;;;;;;;8.97;8.17;;;15.70;1.00;;;;;;5028967;28;20428;-50
2021/07/21 03:50:42;;;;;;;8.57;7.87;;;15.70;1.00;;;;;;5025279;28;20901;-52
2021/07/21 03:53:08;;;;;;;9.00;8.20;;;15.60;1.00;;;;;;5027977;28;20522;-51
2021/07/21 03:55:37;;;;;;;9.47;8.50;;;15.60;2.50;;;;;;5026963;28;20488;-50
2021/07/21 03:58:03;;;;;;;9.73;8.13;;;15.70;1.00;;;;;;5015665;28;20428;-53
2021/07/21 04:00:28;;;;;;;8.70;7.75;;;15.70;1.00;;;;;;5027850;28;20441;-53
2021/07/21 04:02:57;;;;;;;10.00;8.97;;;15.70;1.00;;;;;;5026921;28;20188;-49
2021/07/21 04:05:25;;;;;;;9.43;8.48;;;15.80;1.00;;;;;;5024211;28;20645;-51
2021/07/21 04:07:53;;;;;;;8.70;8.02;;;15.90;1.00;;;;;;5024800;28;20215;-51
2021/07/21 04:10:19;;;;;;;7.97;7.17;;;15.90;1.00;;;;;;5026499;28;20270;-53
2021/07/21 04:12:48;;;;;;;8.80;8.00;;;15.90;1.00;;;;;;5021579;28;20438;-51
2021/07/21 04:15:15;;;;;;;8.57;7.77;;;16.00;1.00;;;;;;5005777;28;20433;-53
2021/07/21 04:17:41;;;;;;;9.03;8.13;;;16.00;1.00;;;;;;5009522;28;20891;-51
2021/07/21 04:20:09;;;;;;;8.20;7.50;;;16.10;1.00;;;;;;5010206;28;20444;-51
2021/07/21 04:22:35;;;;;;;8.60;7.90;;;16.10;1.00;;;;;;5005648;28;20432;-53
2021/07/21 04:25:03;;;;;;;9.80;8.90;;;16.10;1.00;;;;;;5009802;28;20454;-51
2021/07/21 04:27:29;;;;;;;9.27;7.77;;;16.10;1.00;;;;;;5007351;28;20441;-51
2021/07/21 04:29:56;;;;;;;8.47;7.67;;;16.20;1.00;;;;;;5011636;28;20494;-50
2021/07/21 04:32:23;;;;;;;8.57;7.57;;;16.20;1.00;;;;;;5005174;28;20445;-53
2021/07/21 04:34:50;;;;;;;9.50;8.57;;;16.30;1.00;;;;;;5009502;28;20443;-54
2021/07/21 04:37:18;;;;;;;8.47;7.60;;;16.30;1.00;;;;;;5005631;28;20787;-51
2021/07/21 04:39:44;;;;;;;8.90;8.10;;;16.30;1.00;;;;;;5007411;28;21528;-54
2021/07/21 04:42:10;;;;;;;8.97;8.10;;;16.40;1.00;;;;;;5025240;28;20447;-55
2021/07/21 04:44:39;;;;;;;9.10;8.20;;;16.40;1.00;;;;;;5024683;28;20440;-54
2021/07/21 04:47:05;;;;;;;9.73;8.80;;;16.50;1.00;;;;;;5009867;28;20427;-50
2021/07/21 04:49:32;;;;;;;9.03;8.00;;;16.60;1.00;;;;;;5029736;28;20814;-49
2021/07/21 04:52:02;;;;;;;8.27;7.47;;;16.60;1.00;;;;;;5031320;28;20443;-52
2021/07/21 04:54:28;;;;;;;9.40;7.93;;;16.60;1.00;;;;;;5031904;28;20416;-52
2021/07/21 04:56:55;;;;;;;9.40;8.60;;;16.70;1.00;;;;;;5029012;28;20452;-52
2021/07/21 04:59:20;;;;;;;8.35;7.22;;;16.80;1.00;;;;;;5030631;28;20194;-49
2021/07/21 05:01:48;;;;;;;11.00;7.60;;;16.80;1.00;;;;;;5029523;28;20644;-54
2021/07/21 05:04:14;;;;;;;9.13;8.07;;;17.00;1.00;;;;;;5020712;28;20195;-53
2021/07/21 05:06:39;;;;;;;9.43;8.43;;;17.10;1.00;;;;;;5028700;28;20205;-51
2021/07/21 05:09:06;;;;;;;10.20;7.80;;;17.10;1.00;;;;;;5013325;28;20468;-49
2021/07/21 05:11:32;;;;;;;9.53;8.70;;;17.20;1.00;;;;;;5031266;28;20186;-51
2021/07/21 05:13:57;;;;;;;8.10;7.50;;;17.20;1.00;;;;;;5034334;28;20420;-55
2021/07/21 05:16:23;;;;;;;9.00;8.10;;;17.30;1.00;;;;;;5031148;28;20179;-52
2021/07/21 05:18:49;;;;;;;9.23;8.43;;;17.40;1.00;;;;;;5030840;28;20233;-53
2021/07/21 05:21:14;;;;;;;8.90;8.17;;;17.40;1.00;;;;;;5030588;28;20188;-55
2021/07/21 05:23:40;;;;;;;9.00;8.07;;;17.60;1.00;;;;;;5031041;28;20186;-52
2021/07/21 05:26:09;;;;;;;8.80;7.90;;;17.60;1.00;;;;;;5030759;28;20236;-55
2021/07/21 05:28:38;;;;;;;9.07;8.23;;;17.70;1.00;;;;;;5030863;28;20892;-52
2021/07/21 05:31:03;;;;;;;9.97;8.27;;;17.90;1.00;;;;;;5030785;28;21077;-49
2021/07/21 05:33:29;;;;;;;10.00;9.20;;;17.90;1.00;;;;;;5030889;28;20429;-52
2021/07/21 05:35:54;;;;;;;9.50;8.60;;;18.10;1.00;;;;;;5030064;28;20189;-49
2021/07/21 05:38:20;;;;;;;9.10;8.30;;;18.10;1.00;;;;;;5031235;28;20329;-49
2021/07/21 05:40:46;;;;;;;9.20;8.47;;;18.10;1.00;;;;;;5030914;28;20214;-54
2021/07/21 05:43:11;;;;;;;8.60;7.93;;;18.20;1.00;;;;;;5030568;28;20271;-48
2021/07/21 05:45:37;;;;;;;8.83;8.13;;;18.30;1.00;;;;;;5030391;28;20241;-51
2021/07/21 05:48:03;;;;;;;8.77;8.07;;;18.20;1.00;;;;;;5029462;28;20207;-52
2021/07/21 05:50:28;;;;;;;9.93;8.87;;;18.30;1.00;;;;;;5030113;28;20770;-50
2021/07/21 05:52:54;;;;;;;9.97;8.97;;;18.30;1.00;;;;;;5030166;28;20522;-53
2021/07/21 05:55:20;;;;;;;10.20;8.53;;;18.30;1.00;;;;;;5024981;28;20516;-56
2021/07/21 05:57:46;;;;;;;8.63;7.83;;;18.60;1.00;;;;;;5020649;28;20217;-53
2021/07/21 06:00:13;;;;;;;9.07;8.27;;;18.80;1.00;;;;;;5027233;28;20849;-50
2021/07/21 06:02:39;;;;;;;8.93;8.10;;;18.80;1.00;;;;;;5029219;28;20417;-56
2021/07/21 06:05:06;;;;;;;8.67;7.97;;;19.00;1.00;;;;;;5029748;28;20427;-54
2021/07/21 06:07:32;;;;;;;9.90;9.00;;;19.10;1.00;;;;;;5023972;28;20620;-54
2021/07/21 06:09:58;;;;;;;9.97;8.97;;;19.20;1.00;;;;;;5013395;28;20974;-54
2021/07/21 06:12:23;;;;;;;9.13;8.23;;;19.30;1.00;;;;;;5031101;28;20427;-54
2021/07/21 06:14:49;;;;;;;8.60;7.80;;;19.30;1.00;;;;;;5029847;28;20625;-54
2021/07/21 06:17:15;;;;;;;8.70;8.00;;;19.50;99.90;;;;;;5011489;28;20236;-55
2021/07/21 06:19:41;;;;;;;8.97;7.97;;;19.50;32.90;;;;;;5029610;28;20197;-55
2021/07/21 06:22:07;;;;;;;8.30;7.50;;;19.60;99.90;;;;;;5028550;28;20434;-55
2021/07/21 06:24:34;;;;;;;9.40;8.50;;;19.70;1.00;;;;;;5030074;28;20179;-54
2021/07/21 06:27:00;;;;;;;8.93;8.10;;;19.80;99.90;;;;;;5029781;28;20421;-53
2021/07/21 06:29:26;;;;;;;8.40;7.67;;;19.90;99.90;;;;;;5029943;28;20464;-51
2021/07/21 06:31:51;;;;;;;8.77;8.07;;;19.90;99.90;;;;;;5029825;28;20494;-52
2021/07/21 06:34:17;;;;;;;8.30;7.50;;;20.00;1.00;;;;;;5029658;28;20887;-53
2021/07/21 06:36:43;;;;;;;8.70;8.00;;;20.10;1.00;;;;;;5029243;28;20171;-54
2021/07/21 06:39:08;;;;;;;9.00;8.20;;;20.00;99.90;;;;;;5029506;28;20190;-50
2021/07/21 06:41:34;;;;;;;9.07;8.30;;;20.10;1.00;;;;;;5029529;28;20191;-51
2021/07/21 06:44:00;;;;;;;9.10;8.30;;;20.30;99.90;;;;;;5028573;28;20258;-54
2021/07/21 06:46:27;;;;;;;9.90;8.83;;;20.30;99.90;;;;;;5035315;28;20178;-53
2021/07/21 06:48:53;;;;;;;8.27;7.60;;;20.40;1.00;;;;;;5027590;28;20761;-56
2021/07/21 06:51:19;;;;;;;10.60;8.87;;;20.50;90.00;;;;;;5027780;28;20423;-52
2021/07/21 06:53:45;;;;;;;9.67;8.83;;;20.40;99.90;;;;;;5027579;28;20472;-54
2021/07/21 06:56:12;;;;;;;10.20;9.23;;;20.40;43.40;;;;;;5028420;28;21202;-55
2021/07/21 06:58:38;;;;;;;9.60;8.80;;;20.40;1.00;;;;;;5028222;28;20416;-49
2021/07/21 07:01:03;;;;;;;9.13;8.33;;;20.50;99.90;;;;;;5028210;28;20507;-54
2021/07/21 07:03:29;;;;;;;9.57;8.77;;;20.50;99.90;;;;;;5028665;28;20179;-53
2021/07/21 07:05:54;;;;;;;9.43;8.53;;;20.60;99.90;;;;;;5028848;28;20269;-50
2021/07/21 07:08:20;;;;;;;8.47;7.77;;;20.60;92.60;;;;;;5029454;28;20236;-48
2021/07/21 07:10:46;;;;;;;10.60;9.00;;;20.70;99.90;;;;;;5029077;28;20558;-52
2021/07/21 07:13:12;;;;;;;8.27;7.67;;;20.80;99.90;;;;;;5029721;28;20218;-52
2021/07/21 07:15:38;;;;;;;9.37;8.60;;;21.00;99.90;;;;;;5029909;28;20413;-52
2021/07/21 07:18:06;;;;;;;9.00;8.10;;;21.10;99.90;;;;;;5012068;28;20473;-53
2021/07/21 07:20:32;;;;;;;9.20;8.30;;;21.20;1.00;;;;;;5029695;28;20425;-57
2021/07/21 07:22:58;;;;;;;9.10;8.20;;;21.20;1.00;;;;;;5030037;28;20506;-56
2021/07/21 07:25:23;;;;;;;9.63;7.93;;;21.30;99.90;;;;;;5030045;28;20240;-48
2021/07/21 07:27:49;;;;;;;10.03;9.13;;;21.40;99.90;;;;;;5029564;28;20285;-53
2021/07/21 07:30:14;;;;;;;10.57;9.77;;;21.50;99.90;;;;;;5029488;28;20264;-54
2021/07/21 07:32:41;;;;;;;9.20;8.37;;;21.60;99.90;;;;;;5029854;28;20174;-49
2021/07/21 07:35:07;;;;;;;9.47;8.60;;;21.70;99.90;;;;;;5011753;28;20182;-52
2021/07/21 07:37:33;;;;;;;9.40;8.57;;;21.80;81.30;;;;;;5029673;28;20401;-51
2021/07/21 07:39:59;;;;;;;8.23;7.53;;;21.90;1.00;;;;;;5029432;28;20918;-50
2021/07/21 07:42:24;;;;;;;10.40;7.80;;;22.10;1.00;;;;;;5029781;28;20581;-53
2021/07/21 07:44:50;;;;;;;9.30;8.60;;;22.20;1.00;;;;;;5028750;28;20186;-54
2021/07/21 07:47:15;;;;;;;9.37;8.57;;;22.30;99.90;;;;;;5028330;28;20177;-51
2021/07/21 07:49:41;;;;;;;9.50;8.60;;;22.40;99.90;;;;;;5029527;28;20210;-53
2021/07/21 07:52:06;;;;;;;8.90;8.20;;;22.50;99.90;;;;;;5022131;28;20197;-50
2021/07/21 07:54:32;;;;;;;9.43;8.63;;;22.60;99.90;;;;;;5029533;28;20190;-53
2021/07/21 07:56:57;;;;;;;10.10;9.10;;;22.70;1.00;;;;;;5021152;28;20183;-50
2021/07/21 07:59:23;;;;;;;9.53;8.70;;;22.80;1.00;;;;;;5029562;28;20189;-52
2021/07/21 08:01:49;;;;;;;9.47;8.57;;;22.90;1.00;;;;;;5023419;28;20202;-55
2021/07/21 08:04:15;;;;;;;9.30;8.60;;;22.90;1.00;;;;;;5029622;28;20810;-50
2021/07/21 08:06:40;;;;;;;9.60;8.70;;;22.90;1.00;;;;;;5027388;28;20732;-50
2021/07/21 08:09:12;;;;;;;10.07;9.10;;;23.00;1.00;;;;;;5027705;28;20206;-51
2021/07/21 08:11:45;;;;;;;9.13;8.43;;;23.20;1.00;;;;;;5026702;28;20521;-53
2021/07/21 08:14:11;;;;;;;9.80;9.00;;;23.50;99.90;;;;;;5028199;28;20420;-51
2021/07/21 08:16:37;;;;;;;10.23;9.20;;;23.60;99.90;;;;;;5025917;28;20448;-52
2021/07/21 08:19:03;;;;;;;9.70;9.00;;;23.60;99.90;;;;;;5027885;28;20465;-52
2021/07/21 08:21:29;;;;;;;10.40;9.53;;;23.60;99.90;;;;;;5028018;28;20213;-53
2021/07/21 08:23:54;;;;;;;11.00;8.20;;;23.70;99.90;;;;;;5028707;28;21320;-54
2021/07/21 08:26:20;;;;;;;9.30;8.50;;;23.90;99.90;;;;;;5031550;28;20179;-53
2021/07/21 08:28:45;;;;;;;10.57;9.27;;;24.00;99.90;;;;;;5013018;28;20736;-50
2021/07/21 08:31:11;;;;;;;10.07;9.17;;;24.20;99.90;;;;;;5031459;28;20634;-54
2021/07/21 08:33:36;;;;;;;9.47;8.63;;;24.20;99.90;;;;;;5031255;28;20178;-50
2021/07/21 08:36:02;;;;;;;10.10;9.20;;;24.20;99.90;;;;;;5031705;28;20171;-53
2021/07/21 08:38:28;;;;;;;10.10;9.20;;;24.50;75.00;;;;;;5031143;28;20194;-51
2021/07/21 08:40:55;;;;;;;9.87;8.87;;;24.50;99.90;;;;;;5031449;28;20178;-51
2021/07/21 08:43:21;;;;;;;9.50;8.70;;;24.40;99.90;;;;;;5030380;28;20193;-52
2021/07/21 08:45:47;;;;;;;9.40;8.70;;;24.60;99.90;;;;;;5031098;28;20429;-56
2021/07/21 08:48:13;;;;;;;9.50;8.68;;;24.70;99.90;;;;;;5031033;28;20947;-55
2021/07/21 08:50:43;;;;;;;9.97;9.17;;;24.50;82.50;;;;;;5031175;28;20202;-53
2021/07/21 08:53:09;;;;;;;9.20;8.50;;;24.70;1.00;;;;;;5027036;28;20181;-52
2021/07/21 08:55:35;;;;;;;9.00;8.30;;;24.50;41.70;;;;;;5031232;28;20416;-51
2021/07/21 08:58:01;;;;;;;10.00;9.10;;;24.60;94.20;;;;;;5031455;28;20233;-51
2021/07/21 09:00:27;;;;;;;8.60;7.90;;;24.70;1.00;;;;;;5031543;28;20433;-53
2021/07/21 09:02:52;;;;;;;9.30;8.57;;;24.60;13.60;;;;;;5030065;28;20193;-50
2021/07/21 09:05:18;;;;;;;9.87;8.87;;;24.60;51.90;;;;;;5031130;28;20475;-56
2021/07/21 09:07:46;;;;;;;9.43;8.80;;;24.70;2.80;;;;;;5029951;28;20205;-51
2021/07/21 09:10:15;;;;;;;9.13;8.43;;;24.70;40.90;;;;;;5030470;28;20955;-53
2021/07/21 09:12:43;;;;;;;11.03;9.30;;;24.90;98.00;;;;;;5028634;28;20484;-56
2021/07/21 09:15:12;;;;;;;9.80;9.13;;;25.00;1.00;;;;;;5031187;28;20405;-50
2021/07/21 09:17:56;;;;;;;9.60;8.90;;;25.00;1.00;;;;;;5029004;28;20543;-52
2021/07/21 09:20:22;;;;;;;10.23;9.30;;;25.10;39.10;;;;;;5030639;28;20504;-52
2021/07/21 09:22:53;;;;;;;9.27;8.57;;;25.30;1.00;;;;;;5011560;28;20857;-55
2021/07/21 09:25:23;;;;;;;10.17;9.30;;;25.40;1.00;;;;;;5030422;28;20995;-52
2021/07/21 09:27:51;;;;;;;10.20;9.20;;;25.40;1.00;;;;;;5029538;28;20417;-53
2021/07/21 09:30:28;;;;;;;10.17;9.37;;;25.30;1.00;;;;;;5030097;28;21246;-49
2021/07/21 09:33:01;;;;;;;10.20;9.50;;;25.50;1.00;;;;;;5029516;28;20433;-51
2021/07/21 09:35:47;;;;;;;11.60;10.50;;;25.60;1.00;;;;;;5028869;28;20552;-52
2021/07/21 09:38:14;;;;;;;10.33;9.53;;;26.00;1.00;;;;;;5031216;28;20443;-55
2021/07/21 09:41:04;;;;;;;10.30;9.40;;;26.00;1.00;;;;;;5034306;28;20433;-54
2021/07/21 09:43:34;;;;;;;10.60;9.80;;;26.40;1.00;;;;;;5022726;28;20444;-54
2021/07/21 09:46:12;;;;;;;10.80;10.00;;;26.40;1.00;;;;;;5029894;28;20425;-53
2021/07/21 09:48:49;;;;;;;11.10;10.30;;;26.60;1.00;;;;;;5029855;28;20433;-50
2021/07/21 09:51:34;;;;;;;10.47;9.60;;;26.80;1.00;;;;;;5028900;28;20851;-54
2021/07/21 09:54:18;;;;;;;10.10;9.10;;;27.40;1.00;;;;;;5030021;28;20573;-49
2021/07/21 09:56:46;;;;;;;9.97;9.17;;;27.80;1.00;;;;;;5029698;28;20523;-53
2021/07/21 09:59:23;;;;;;;10.43;9.47;;;28.50;1.00;;;;;;5028797;28;20424;-54
2021/07/21 10:01:49;;;;;;;9.50;8.83;;;28.70;1.00;;;;;;5013823;28;20513;-50
2021/07/21 10:04:33;;;;;;;10.40;9.43;;;28.90;1.00;;;;;;5025358;28;20426;-55
2021/07/21 10:07:00;;;;;;;11.17;10.30;;;29.40;99.90;;;;;;5030088;28;20409;-51
2021/07/21 10:09:25;;;;;;;10.10;9.20;;;29.40;99.90;;;;;;5025744;28;20465;-53
2021/07/21 10:11:53;;;;;;;9.70;9.00;;;29.30;99.90;;;;;;5029279;28;20437;-54
2021/07/21 10:14:18;;;;;;;11.17;10.30;;;29.50;99.90;;;;;;5029499;28;20166;-51
2021/07/21 10:16:48;;;;;;;10.70;9.80;;;29.90;99.90;;;;;;5028881;28;20459;-51
2021/07/21 10:19:19;;;;;;;10.30;9.47;;;30.00;99.90;;;;;;5028689;28;20238;-53
2021/07/21 10:21:49;;;;;;;9.90;9.10;;;30.20;99.90;;;;;;5025455;28;20596;-54
2021/07/21 10:24:15;;;;;;;11.05;10.15;;;29.90;99.90;;;;;;5029084;28;20449;-51
2021/07/21 10:26:42;;;;;;;9.50;8.80;;;30.10;99.90;;;;;;5029508;28;20214;-55
2021/07/21 10:29:10;;;;;;;10.17;9.27;;;29.70;99.90;;;;;;5029035;28;20206;-51
2021/07/21 10:31:36;;;;;;;10.90;8.93;;;29.40;99.90;;;;;;5027878;28;20440;-50
2021/07/21 10:34:02;;;;;;;9.70;9.00;;;29.30;99.90;;;;;;5029249;28;20755;-53
2021/07/21 10:36:31;;;;;;;10.13;9.33;;;29.50;99.90;;;;;;5019006;28;20912;-55
2021/07/21 10:38:58;;;;;;;10.20;9.50;;;29.10;99.90;;;;;;5028536;28;20413;-56
2021/07/21 10:41:27;;;;;;;9.20;8.50;;;28.80;99.90;;;;;;5028874;28;20401;-54
2021/07/21 10:43:53;;;;;;;9.20;8.53;;;28.60;99.90;;;;;;5028105;28;20875;-54
2021/07/21 10:46:31;;;;;;;10.10;9.30;;;28.00;99.90;;;;;;5028265;28;20416;-55
2021/07/21 10:49:44;;;;;;;9.70;8.90;;;27.60;99.90;;;;;;5028225;28;20413;-52
2021/07/21 11:00:30;;;;;;;8.70;8.10;;;26.50;99.90;;;;;;5026446;28;20454;-56
2021/07/21 11:03:22;;;;;;;7.70;7.10;;;26.60;99.90;;;;;;5024942;28;20795;-55
2021/07/21 11:06:02;;;;;;;8.53;7.93;;;27.00;99.90;;;;;;5025847;28;20826;-49
2021/07/21 11:08:29;;;;;;;8.57;7.87;;;26.90;99.90;;;;;;5025585;28;20425;-55
2021/07/21 11:11:10;;;;;;;8.60;8.10;;;26.60;99.90;;;;;;5026665;28;20550;-53
2021/07/21 11:13:39;;;;;;;8.13;7.63;;;26.90;99.90;;;;;;5026660;28;20425;-55
2021/07/21 11:16:06;;;;;;;7.73;7.20;;;27.40;99.90;;;;;;5022418;28;20426;-49
2021/07/21 11:18:34;;;;;;;8.30;7.70;;;27.40;99.90;;;;;;5022089;28;21049;-57
2021/07/21 11:21:11;;;;;;;8.00;7.30;;;27.40;99.90;;;;;;5018032;28;20514;-54
2021/07/21 11:23:46;;;;;;;6.70;6.30;;;27.20;99.90;;;;;;5017378;28;21014;-54
2021/07/21 11:26:41;;;;;;;6.70;6.30;;;27.70;99.90;;;;;;5020153;28;20424;-51
2021/07/21 11:29:33;;;;;;;7.57;7.07;;;28.80;99.90;;;;;;5026275;28;20518;-48
2021/07/21 11:32:00;;;;;;;6.80;6.40;;;30.10;99.90;;;;;;5023118;28;20426;-49
2021/07/21 11:34:32;;;;;;;7.90;7.37;;;30.90;99.90;;;;;;5020971;28;20409;-55
2021/07/21 11:37:04;;;;;;;7.90;7.40;;;31.00;99.90;;;;;;5016767;28;20422;-54
2021/07/21 11:39:50;;;;;;;8.60;8.00;;;31.50;99.90;;;;;;5023876;28;20425;-52
2021/07/21 11:42:38;;;;;;;8.03;7.40;;;31.20;99.90;;;;;;5018364;28;20529;-51
2021/07/21 11:45:13;;;;;;;7.63;7.10;;;30.30;99.90;;;;;;5026402;28;20457;-53
2021/07/21 11:47:45;;;;;;;9.27;8.67;;;30.10;99.90;;;;;;5027770;28;20416;-52
2021/07/21 11:50:11;;;;;;;8.13;7.63;;;29.80;99.90;;;;;;5018974;28;20464;-50
2021/07/21 11:52:37;;;;;;;8.93;8.33;;;29.60;99.90;;;;;;5027727;28;20768;-55
2021/07/21 11:55:04;;;;;;;9.20;8.50;;;29.40;99.90;;;;;;5014627;28;20605;-54
2021/07/21 11:57:29;;;;;;;9.07;8.47;;;28.60;99.90;;;;;;5029707;28;20420;-54
2021/07/21 11:59:57;;;;;;;8.70;8.10;;;28.60;99.90;;;;;;5031149;28;20425;-52
2021/07/21 12:02:26;;;;;;;8.37;7.80;;;28.40;99.90;;;;;;5032063;28;20187;-54
2021/07/21 12:04:53;;;;;;;8.17;7.67;;;28.40;99.90;;;;;;5031355;28;20441;-49
2021/07/21 12:07:21;;;;;;;8.93;8.33;;;28.50;99.90;;;;;;5032790;28;20927;-55
2021/07/21 12:09:52;;;;;;;8.20;7.60;;;28.60;99.90;;;;;;5032873;28;20900;-56
2021/07/21 12:12:21;;;;;;;8.00;7.43;;;28.60;99.90;;;;;;5033437;28;20421;-52
2021/07/21 12:14:50;;;;;;;8.47;7.87;;;28.40;99.90;;;;;;5032847;28;20798;-53
2021/07/21 12:17:17;;;;;;;8.13;7.63;;;28.70;99.90;;;;;;5032984;28;20480;-55
2021/07/21 12:19:53;;;;;;;8.60;8.00;;;29.40;99.90;;;;;;5032417;28;20417;-52
2021/07/21 12:22:18;;;;;;;7.85;7.32;;;30.50;99.90;;;;;;5032995;28;20432;-50
2021/07/21 12:24:50;;;;;;;9.33;8.67;;;31.70;99.90;;;;;;5033631;28;20187;-55
2021/07/21 12:27:21;;;;;;;9.10;8.50;;;32.30;99.90;;;;;;5032883;28;20167;-54
2021/07/21 12:29:47;;;;;;;9.40;8.80;;;31.90;99.90;;;;;;5013933;28;20995;-50
2021/07/21 12:32:15;;;;;;;9.50;8.80;;;31.30;99.90;;;;;;5015404;28;20648;-54
2021/07/21 12:34:43;;;;;;;9.53;8.93;;;30.70;99.90;;;;;;5033334;28;20213;-51
2021/07/21 12:37:14;;;;;;;9.97;9.23;;;30.10;99.90;;;;;;5033417;28;20385;-55
2021/07/21 12:39:41;;;;;;;9.30;8.60;;;29.60;99.90;;;;;;5032476;28;20538;-51
2021/07/21 12:42:11;;;;;;;8.93;8.23;;;29.40;99.90;;;;;;5032946;28;20449;-50
2021/07/21 12:44:40;;;;;;;8.90;8.30;;;29.30;99.90;;;;;;5027056;28;20773;-53
2021/07/21 12:47:15;;;;;;;9.67;8.97;;;29.30;99.90;;;;;;5032972;28;20448;-53
2021/07/21 12:49:43;;;;;;;8.47;7.60;;;28.90;99.90;;;;;;5013072;28;20533;-51
2021/07/21 12:52:19;;;;;;;8.33;7.63;;;29.00;99.90;;;;;;5033034;28;20428;-50
2021/07/21 12:54:51;;;;;;;9.23;8.63;;;29.00;99.90;;;;;;5031400;28;20532;-51
2021/07/21 12:57:43;;;;;;;8.97;8.27;;;29.20;99.90;;;;;;5031789;28;20440;-54
2021/07/21 13:00:18;;;;;;;9.10;8.40;;;29.10;99.90;;;;;;5025183;28;20522;-49
2021/07/21 13:03:09;;;;;;;8.07;7.57;;;29.30;99.90;;;;;;5032130;28;20555;-53
2021/07/21 13:05:47;;;;;;;9.03;8.40;;;29.40;99.90;;;;;;5028164;28;20182;-53
2021/07/21 13:08:24;;;;;;;8.93;8.23;;;29.30;99.90;;;;;;5030523;28;20421;-51
2021/07/21 13:11:09;;;;;;;8.93;8.07;;;29.60;99.90;;;;;;5030865;28;20527;-51